首页
METAR-TAF:

METAR-TAF

机场 :

Terrace, 不列颠哥伦比亚, 加拿大

纬度: 54-28N, 经度: 128-35W, 海拔: 217米

当前天气观测

该预报发布于34分钟前的20:00 UTC
风速20节,风向,有时为27节阵风
温度 4°C
湿度 87%
气压 1012 hPa
能見度: 12.9公里
散云层高于700英尺
多云层高于4000英尺
多云层高于6800英尺
附近有阵雨

METAR: CYXT 272000Z 18020G27KT 8SM VCSH SCT007 BKN040 BKN068 04/02 A2987 RMK CF4CU1AC2 SLP125

时间: 12:34 (20:34 UTC)

预报

该预报发布于1小时和56分钟前的18:38 UTC
预报有效从27日的 19点(UTC)到 28日的 07点(UTC)
风速22节,风向,有时为32节阵风
能見度: 10公里
散云层高于1500英尺
多云层高于3000英尺
小雨
短暂存在
从 27日的 19点(UTC)到 27日的 24点(UTC)
散云层高于500英尺
多云层高于1500英尺
小阵雨, 轻雾
从 28日的 0000点(UTC)
风速22节,风向,有时为32节阵风
能見度: 10公里
散云层高于600英尺
多云层高于1500英尺
短暂存在
从 28日的 00点(UTC)到 28日的 07点(UTC)
能見度: 3.2公里
多云层高于600英尺
小阵雨, 轻雾

TAF: CYXT 271838Z 2719/2807 18022G32KT P6SM -RA SCT015 BKN030 TEMPO 2719/2724 21/2SM -SHRA BR SCT005 BKN015 FM280000 18022G32KT P6SM SCT006 BKN015 TEMPO 2800/2807 2SM -SHRA BR BKN006 RMK NXT FCST BY 280100Z

超过4000个机场的气象观测和天气预报(METAR&TAF报告)。

可查询的气象台以黄色和红色小点在地图上表示。

将鼠标移到小点上方,可查看气象台名称。

然后点击查看天气观测和预报。

如需切换地图:点击带黑十字的绿色按钮放大地图;点击带横线的绿色按钮缩小地图;或者点击绿色箭头查看邻近地区的地图。


METAR-TAF: